createdAt,value
2019-06-07T00:01:54.513Z,12.07
2019-06-07T00:05:09.985Z,11.73
2019-06-07T00:08:28.530Z,11.57
2019-06-07T00:11:39.558Z,11.33
2019-06-07T00:14:53.067Z,13.53
2019-06-07T00:18:11.167Z,12.93
2019-06-07T00:22:12.005Z,13.70
2019-06-07T00:24:38.322Z,12.30
2019-06-07T00:27:51.931Z,13.73
2019-06-07T00:31:05.884Z,11.83
2019-06-07T00:34:22.575Z,11.57
2019-06-07T00:37:35.246Z,12.00
2019-06-07T00:40:48.945Z,13.40
2019-06-07T00:44:02.683Z,12.23
2019-06-07T00:47:18.746Z,12.67
2019-06-07T00:50:31.618Z,12.77
2019-06-07T00:53:45.322Z,12.50
2019-06-07T00:56:58.866Z,12.10
2019-06-07T01:00:18.321Z,13.53
2019-06-07T01:03:30.409Z,13.63
2019-06-07T01:06:44.372Z,12.67
2019-06-07T01:09:57.906Z,12.50
2019-06-07T01:13:11.857Z,14.03
2019-06-07T01:16:26.385Z,14.30
2019-06-07T01:19:40.343Z,12.10
2019-06-07T01:22:54.055Z,12.50
2019-06-07T01:26:07.676Z,13.20
2019-06-07T01:29:22.257Z,11.43
2019-06-07T01:32:36.614Z,12.07
2019-06-07T01:35:50.130Z,13.13
2019-06-07T01:39:05.542Z,12.63
2019-06-07T01:42:20.383Z,12.33
2019-06-07T01:45:34.938Z,12.27
2019-06-07T01:48:49.800Z,11.40
2019-06-07T01:52:03.774Z,10.83
2019-06-07T01:55:18.811Z,11.93
2019-06-07T01:58:32.835Z,11.30
2019-06-07T02:01:46.361Z,12.57
2019-06-07T02:04:59.972Z,11.53
2019-06-07T02:08:13.681Z,11.07
2019-06-07T02:11:29.321Z,11.47
2019-06-07T02:14:43.020Z,10.87
2019-06-07T02:17:56.580Z,10.93
2019-06-07T02:21:10.445Z,10.20
2019-06-07T02:24:25.253Z,10.93
2019-06-07T02:27:39.382Z,9.67
2019-06-07T02:30:59.910Z,10.10
2019-06-07T02:34:08.396Z,10.07
2019-06-07T02:37:24.203Z,9.17
2019-06-07T02:40:37.768Z,9.27
2019-06-07T02:43:51.373Z,9.93
2019-06-07T02:47:05.122Z,10.53
2019-06-07T02:50:20.834Z,10.90
2019-06-07T02:53:40.136Z,11.87
2019-06-07T02:56:58.167Z,11.03
2019-06-07T03:00:27.351Z,10.53
2019-06-07T03:03:22.321Z,10.43
2019-06-07T03:06:42.789Z,10.70
2019-06-07T03:09:54.885Z,9.97
2019-06-07T03:13:11.228Z,9.43
2019-06-07T03:16:33.515Z,10.77
2019-06-07T03:19:47.806Z,10.53
2019-06-07T03:23:03.559Z,11.53
2019-06-07T03:26:17.585Z,12.03
2019-06-07T03:29:32.270Z,11.33
2019-06-07T03:32:48.400Z,12.77
2019-06-07T03:36:22.928Z,12.27
2019-06-07T03:39:18.463Z,12.77
2019-06-07T03:42:34.826Z,14.30
2019-06-07T03:45:48.128Z,13.90
2019-06-07T03:49:02.372Z,16.67
2019-06-07T03:52:16.070Z,15.47
2019-06-07T03:55:30.448Z,11.93
2019-06-07T03:58:49.677Z,13.57
2019-06-07T04:02:01.148Z,15.13
2019-06-07T04:05:14.775Z,18.50
2019-06-07T04:08:28.382Z,16.63
2019-06-07T04:11:41.888Z,15.43
2019-06-07T04:14:55.677Z,17.50
2019-06-07T04:18:09.401Z,17.63
2019-06-07T04:21:22.928Z,17.77
2019-06-07T04:24:40.208Z,19.50
2019-06-07T04:27:52.792Z,19.80
2019-06-07T04:31:07.071Z,20.30
2019-06-07T04:34:21.005Z,18.13
2019-06-07T04:37:39.670Z,18.33
2019-06-07T04:40:52.791Z,17.53
2019-06-07T04:44:08.006Z,17.40
2019-06-07T04:47:25.167Z,15.83
2019-06-07T04:50:43.457Z,17.33
2019-06-07T04:53:54.188Z,18.87
2019-06-07T04:57:07.700Z,20.47
2019-06-07T05:03:44.650Z,18.60
2019-06-07T05:06:58.163Z,19.57
2019-06-07T05:10:11.974Z,19.73
2019-06-07T05:16:43.697Z,17.90
2019-06-07T05:19:55.320Z,17.53
2019-06-07T05:23:08.925Z,19.17
2019-06-07T05:26:22.786Z,20.43
2019-06-07T05:29:37.223Z,16.93
2019-06-07T05:32:51.725Z,18.70
2019-06-07T05:36:05.789Z,18.10
2019-06-07T05:39:19.560Z,17.67
2019-06-07T05:42:37.019Z,19.20
2019-06-07T05:45:49.260Z,17.60
2019-06-07T05:49:03.158Z,18.33
2019-06-07T05:52:17.136Z,18.57
2019-06-07T05:55:30.808Z,17.03
2019-06-07T05:58:44.806Z,18.07
2019-06-07T06:02:05.017Z,17.23
2019-06-07T06:05:32.530Z,19.07
2019-06-07T06:08:30.131Z,17.97
2019-06-07T06:11:59.718Z,17.70
2019-06-07T06:15:03.113Z,17.30
2019-06-07T06:18:16.961Z,17.97
2019-06-07T06:21:30.916Z,18.57
2019-06-07T06:25:17.149Z,18.73
2019-06-07T06:28:10.849Z,18.07
2019-06-07T06:31:15.636Z,17.50
2019-06-07T06:34:29.435Z,17.20
2019-06-07T06:37:47.133Z,16.73
2019-06-07T06:41:14.655Z,16.67
2019-06-07T06:44:14.401Z,16.87
2019-06-07T06:47:28.641Z,17.17
2019-06-07T06:50:44.400Z,13.80
2019-06-07T06:53:57.710Z,13.43
2019-06-07T06:57:19.795Z,13.73
2019-06-07T07:01:05.305Z,12.43
2019-06-07T07:04:12.772Z,10.87
2019-06-07T07:07:25.045Z,10.70
2019-06-07T07:10:40.733Z,10.27
2019-06-07T07:13:56.906Z,9.23
2019-06-07T07:17:10.694Z,9.80
2019-06-07T07:20:24.792Z,10.23
2019-06-07T07:23:38.544Z,10.47
2019-06-07T07:26:53.925Z,11.07
2019-06-07T07:30:36.075Z,10.03
2019-06-07T07:33:25.053Z,10.37
2019-06-07T07:36:40.033Z,9.87
2019-06-07T07:40:01.169Z,8.90
2019-06-07T07:43:09.514Z,9.57
2019-06-07T07:46:29.536Z,8.87
2019-06-07T07:49:38.777Z,10.53
2019-06-07T07:52:56.028Z,9.17
2019-06-07T07:56:08.340Z,8.97
2019-06-07T07:59:40.743Z,9.87
2019-06-07T08:02:37.833Z,9.13
2019-06-07T08:05:54.008Z,9.50
2019-06-07T08:09:07.309Z,9.70
2019-06-07T08:12:21.261Z,9.03
2019-06-07T08:15:34.986Z,8.73
2019-06-07T08:18:51.323Z,9.77
2019-06-07T08:22:04.358Z,10.50
2019-06-07T08:25:18.489Z,10.60
2019-06-07T08:28:32.147Z,10.00
2019-06-07T08:31:45.903Z,10.97
2019-06-07T08:35:05.860Z,11.47
2019-06-07T08:38:26.742Z,10.73
2019-06-07T08:41:31.186Z,11.40
2019-06-07T08:44:44.686Z,10.23
2019-06-07T08:48:09.131Z,11.37
2019-06-07T08:51:13.775Z,10.27
2019-06-07T08:54:27.391Z,11.00
2019-06-07T08:57:41.145Z,9.53
2019-06-07T09:00:58.097Z,9.97
2019-06-07T09:04:11.288Z,9.23
2019-06-07T09:07:25.239Z,9.27
2019-06-07T09:10:38.831Z,9.53
2019-06-07T09:13:54.469Z,9.80
2019-06-07T09:17:12.056Z,8.77
2019-06-07T09:20:36.887Z,8.50
2019-06-07T09:23:44.065Z,8.10
2019-06-07T09:27:00.238Z,8.13
2019-06-07T09:30:18.789Z,8.20
2019-06-07T09:33:31.722Z,9.17
2019-06-07T09:36:45.772Z,8.70
2019-06-07T09:40:10.736Z,7.17
2019-06-07T09:46:31.083Z,7.93
2019-06-07T09:49:44.906Z,7.97
2019-06-07T09:53:10.551Z,7.93
2019-06-07T09:56:14.019Z,8.23
2019-06-07T09:59:28.287Z,8.37
2019-06-07T10:02:42.016Z,8.57
2019-06-07T10:05:55.574Z,7.80
2019-06-07T10:12:25.290Z,7.73
2019-06-07T10:15:39.127Z,7.43
2019-06-07T10:18:52.823Z,8.23
2019-06-07T10:22:07.810Z,7.60
2019-06-07T10:25:24.623Z,8.53
2019-06-07T10:32:30.463Z,5.90
2019-06-07T10:35:44.433Z,7.10
2019-06-07T10:38:58.093Z,7.13
2019-06-07T10:42:11.855Z,5.73
2019-06-07T10:45:25.440Z,6.87
2019-06-07T10:48:39.113Z,6.60
2019-06-07T10:51:52.894Z,6.20
2019-06-07T10:55:06.835Z,5.47
2019-06-07T10:58:20.481Z,5.30
2019-06-07T11:01:34.060Z,6.80
2019-06-07T11:04:47.563Z,5.00
2019-06-07T11:08:01.356Z,5.30
2019-06-07T11:11:15.169Z,4.97
2019-06-07T11:14:28.674Z,5.30
2019-06-07T11:17:42.341Z,4.93
2019-06-07T11:20:55.851Z,4.40
2019-06-07T11:24:10.165Z,4.60
2019-06-07T11:27:24.025Z,3.63
2019-06-07T11:30:37.794Z,6.07
2019-06-07T11:33:51.423Z,4.97
2019-06-07T11:37:07.188Z,4.73
2019-06-07T11:40:35.292Z,4.70
2019-06-07T11:43:37.430Z,5.20
2019-06-07T11:46:51.402Z,4.10
2019-06-07T11:50:05.192Z,4.27
2019-06-07T11:53:19.992Z,5.50
2019-06-07T11:56:36.220Z,6.10
2019-06-07T11:59:49.914Z,4.70
2019-06-07T12:03:03.586Z,5.10
2019-06-07T12:06:18.118Z,4.70
2019-06-07T12:09:32.036Z,4.40
2019-06-07T12:16:39.986Z,5.53
2019-06-07T12:19:53.589Z,6.20
2019-06-07T12:23:07.229Z,5.80
2019-06-07T12:26:20.945Z,6.27
2019-06-07T12:29:34.727Z,5.40
2019-06-07T12:32:48.281Z,4.90
2019-06-07T12:36:02.361Z,6.23
2019-06-07T12:39:16.110Z,6.20
2019-06-07T12:42:30.102Z,6.10
2019-06-07T12:45:45.406Z,5.83
2019-06-07T12:48:59.364Z,5.97
2019-06-07T12:52:14.649Z,4.77
2019-06-07T12:55:28.705Z,4.30
2019-06-07T12:58:42.642Z,6.97
2019-06-07T13:02:01.830Z,5.63
2019-06-07T13:05:12.402Z,6.13
2019-06-07T13:08:26.427Z,5.20
2019-06-07T13:11:40.064Z,5.90
2019-06-07T13:14:53.596Z,4.43
2019-06-07T13:18:07.332Z,5.03
2019-06-07T13:21:22.277Z,5.23
2019-06-07T13:24:36.522Z,4.20
2019-06-07T13:27:51.970Z,3.90
2019-06-07T13:31:05.977Z,5.20
2019-06-07T13:34:20.499Z,5.33
2019-06-07T13:37:36.488Z,3.70
2019-06-07T13:40:50.184Z,4.13
2019-06-07T13:44:45.852Z,7.13
2019-06-07T13:47:59.810Z,5.10
2019-06-07T13:51:13.718Z,6.03
2019-06-07T13:54:27.841Z,4.77
2019-06-07T13:57:41.547Z,4.67
2019-06-07T14:00:55.154Z,4.47
2019-06-07T14:04:09.250Z,3.87
2019-06-07T14:07:23.596Z,4.27
2019-06-07T14:10:38.691Z,4.50
2019-06-07T14:13:52.622Z,5.47
2019-06-07T14:17:06.423Z,3.50
2019-06-07T14:20:26.672Z,3.60
2019-06-07T14:23:48.354Z,4.27
2019-06-07T14:27:05.810Z,3.70
2019-06-07T14:30:21.684Z,3.30
2019-06-07T14:33:35.647Z,3.80
2019-06-07T14:36:49.424Z,3.67
2019-06-07T14:40:04.070Z,3.23
2019-06-07T14:43:17.986Z,3.00
2019-06-07T14:46:32.160Z,3.50
2019-06-07T14:49:46.408Z,2.90
2019-06-07T14:53:00.320Z,2.80
2019-06-07T14:56:13.859Z,2.90
2019-06-07T14:59:28.320Z,3.20
2019-06-07T15:02:42.023Z,2.93
2019-06-07T15:05:55.936Z,2.90
2019-06-07T15:09:09.722Z,3.10
2019-06-07T15:12:25.451Z,4.97
2019-06-07T15:15:39.053Z,5.37
2019-06-07T15:18:52.605Z,6.40
2019-06-07T15:22:06.498Z,7.80
2019-06-07T15:25:20.129Z,7.87
2019-06-07T15:28:34.171Z,6.80
2019-06-07T15:31:48.150Z,6.67
2019-06-07T15:35:01.922Z,6.60
2019-06-07T15:38:15.745Z,6.93
2019-06-07T15:41:30.959Z,6.93
2019-06-07T15:44:44.549Z,7.10
2019-06-07T15:47:58.462Z,9.00
2019-06-07T15:51:12.410Z,7.83
2019-06-07T15:54:25.965Z,9.67
2019-06-07T15:57:41.537Z,5.90
2019-06-07T16:00:55.444Z,7.10
2019-06-07T16:04:09.221Z,7.03
2019-06-07T16:07:23.166Z,5.80
2019-06-07T16:10:37.084Z,6.40
2019-06-07T16:13:57.571Z,7.43
2019-06-07T16:17:25.028Z,3.67
2019-06-07T16:20:47.932Z,4.00
2019-06-07T16:24:04.088Z,3.00
2019-06-07T16:27:22.523Z,2.20
2019-06-07T16:31:09.334Z,2.10
2019-06-07T16:34:27.805Z,1.67
2019-06-07T16:37:43.045Z,1.47
2019-06-07T16:41:00.001Z,1.50
2019-06-07T16:44:15.935Z,1.27
2019-06-07T16:47:31.167Z,1.30
2019-06-07T16:50:47.220Z,0.80
2019-06-07T16:54:02.643Z,1.07
2019-06-07T16:57:17.651Z,1.20
2019-06-07T17:00:35.010Z,0.80
2019-06-07T17:03:49.839Z,0.70
2019-06-07T17:07:05.561Z,0.90
2019-06-07T17:10:20.464Z,0.70
2019-06-07T17:13:36.789Z,1.07
2019-06-07T17:16:52.159Z,1.37
2019-06-07T17:20:08.264Z,0.67
2019-06-07T17:23:24.692Z,0.83
2019-06-07T17:26:39.595Z,0.70
2019-06-07T17:29:56.560Z,0.87
2019-06-07T17:33:12.916Z,1.10
2019-06-07T17:36:29.436Z,1.00
2019-06-07T17:39:44.993Z,0.70
2019-06-07T17:43:01.128Z,1.00
2019-06-07T17:46:16.793Z,0.60
2019-06-07T17:49:31.973Z,0.90
2019-06-07T17:52:47.922Z,0.70
2019-06-07T17:56:02.843Z,0.63
2019-06-07T17:59:18.543Z,0.70
2019-06-07T18:02:34.249Z,0.90
2019-06-07T18:05:49.391Z,0.73
2019-06-07T18:09:07.039Z,0.80
2019-06-07T18:12:22.963Z,0.73
2019-06-07T18:15:39.048Z,0.80
2019-06-07T18:18:54.856Z,0.80
2019-06-07T18:22:09.611Z,1.10
2019-06-07T18:25:25.429Z,0.80
2019-06-07T18:28:40.567Z,0.70
2019-06-07T18:31:55.759Z,0.70
2019-06-07T18:35:10.708Z,1.10
2019-06-07T18:38:25.613Z,0.80
2019-06-07T18:41:40.254Z,0.70
2019-06-07T18:44:55.511Z,0.70
2019-06-07T18:48:10.593Z,0.83
2019-06-07T18:51:25.894Z,0.93
2019-06-07T18:54:41.060Z,0.80
2019-06-07T18:57:56.507Z,0.80
2019-06-07T19:01:12.149Z,0.73
2019-06-07T19:04:28.559Z,1.20
2019-06-07T19:07:43.213Z,0.80
2019-06-07T19:10:58.996Z,0.70
2019-06-07T19:14:13.689Z,0.87
2019-06-07T19:17:29.278Z,0.93
2019-06-07T19:20:44.126Z,1.07
2019-06-07T19:24:00.104Z,0.80
2019-06-07T19:27:17.227Z,0.87
2019-06-07T19:30:32.300Z,0.87
2019-06-07T19:33:49.307Z,0.70
2019-06-07T19:37:05.024Z,0.70
2019-06-07T19:40:20.774Z,0.60
2019-06-07T19:43:35.682Z,1.00
2019-06-07T19:46:52.201Z,0.63
2019-06-07T19:50:09.717Z,0.90
2019-06-07T19:53:25.895Z,0.63
2019-06-07T19:56:40.761Z,0.67
2019-06-07T19:59:55.551Z,0.87
2019-06-07T20:03:10.912Z,0.67
2019-06-07T20:06:25.900Z,0.80
2019-06-07T20:09:40.636Z,0.80
2019-06-07T20:12:56.590Z,0.63
2019-06-07T20:16:11.800Z,0.90
2019-06-07T20:19:26.844Z,0.70
2019-06-07T20:22:41.823Z,0.87
2019-06-07T20:25:56.689Z,0.70
2019-06-07T20:29:25.535Z,0.70
2019-06-07T20:32:29.660Z,0.70
2019-06-07T20:35:44.917Z,0.70
2019-06-07T20:39:00.174Z,0.60
2019-06-07T20:42:16.275Z,0.87
2019-06-07T20:45:33.930Z,0.70
2019-06-07T20:48:49.365Z,0.57
2019-06-07T20:52:04.886Z,0.70
2019-06-07T20:55:20.282Z,0.87
2019-06-07T20:58:35.321Z,0.87
2019-06-07T21:01:52.154Z,0.50
2019-06-07T21:05:07.900Z,0.70
2019-06-07T21:08:22.914Z,0.70
2019-06-07T21:11:38.651Z,0.93
2019-06-07T21:16:44.608Z,0.87
2019-06-07T21:20:00.541Z,0.60
2019-06-07T21:23:15.452Z,0.70
2019-06-07T21:26:30.493Z,0.70
2019-06-07T21:29:45.288Z,0.80
2019-06-07T21:33:01.354Z,0.90
2019-06-07T21:36:16.975Z,0.80
2019-06-07T21:39:32.126Z,0.80
2019-06-07T21:42:47.079Z,0.80
2019-06-07T21:46:07.237Z,0.83
2019-06-07T21:49:19.582Z,1.00
2019-06-07T21:52:34.282Z,0.80
2019-06-07T21:55:49.089Z,0.80
2019-06-07T21:59:05.055Z,0.87
2019-06-07T22:02:21.143Z,0.70
2019-06-07T22:05:36.156Z,0.80
2019-06-07T22:08:51.056Z,0.73
2019-06-07T22:12:10.038Z,0.90
2019-06-07T22:15:34.046Z,0.73
2019-06-07T22:18:42.708Z,0.63
2019-06-07T22:22:02.783Z,0.70
2019-06-07T22:25:15.899Z,0.90
2019-06-07T22:28:30.752Z,0.73
2019-06-07T22:31:46.233Z,0.80
2019-06-07T22:35:01.321Z,0.70
2019-06-07T22:38:16.183Z,0.80
2019-06-07T22:41:30.928Z,1.00
2019-06-07T22:44:45.697Z,0.67
2019-06-07T22:48:00.877Z,0.80
2019-06-07T22:51:16.486Z,0.60
2019-06-07T22:54:32.838Z,0.80
2019-06-07T22:57:56.992Z,0.80
2019-06-07T23:01:12.553Z,0.80
2019-06-07T23:04:27.766Z,0.77
2019-06-07T23:07:42.504Z,0.83
2019-06-07T23:10:57.377Z,0.83
2019-06-07T23:14:13.462Z,1.10
2019-06-07T23:17:28.068Z,0.90
2019-06-07T23:20:43.205Z,0.90
2019-06-07T23:23:58.050Z,0.60
2019-06-07T23:27:14.480Z,0.73
2019-06-07T23:30:31.173Z,0.60
2019-06-07T23:33:46.060Z,0.90
2019-06-07T23:37:00.850Z,0.83
2019-06-07T23:40:17.402Z,0.90
2019-06-07T23:43:33.269Z,0.83
2019-06-07T23:46:48.388Z,0.60
2019-06-07T23:50:03.618Z,0.90
2019-06-07T23:53:19.992Z,0.87
2019-06-07T23:56:34.851Z,0.80
2019-06-07T23:59:49.599Z,0.60
